Boise Air Terminal/Gowen field
KBOI : now visible

Airfield :











YOU CAN JOIN US ON...

 
LOGIN :

Register | Disclaimer

   EN    FR    IT 

 









Legend :    VFR   Marginal VFR   IFR   Intensive IFR   Very Intensive IFR
Visi :
Ceiling :
>= 8 km
>= 3000ft
5 to 8 km
1000 to 3000 ft
1500m to 5 km
500 to 1000 ft
800 to 1500m
200 to 500 ft
< 800m
< 200 ft
Symbols :   Thunderstorms  Fog  Heavy snow  Heavy precipitations  Wind > 20 kt






- Airport Elevation : 2871 ft
- IATA code : BOI


KBOI - Boise Air Terminal/Gowen field

CURRENT METAR :
  • 070153Z 19008KT 10SM CLR 04/M01 A3006 RMK AO2 SLP190 T00441006

EXPIRED METARs :
  • 070053Z 16006KT 10SM CLR 07/M01 A3007 RMK AO2 SLP188 T00671006
  • 062353Z 16008KT 10SM CLR 09/00 A3009 RMK AO2 SLP194 T00890000 10106 20056 55014
  • 062253Z 14014G21KT 10SM CLR 11/M01 A3008 RMK AO2 SLP188 T01061006

TAF KBOI
Valid from the 07 at 00:00 until the 08 at 00:00 UTC


070021Z 0700/0724 14010KT P6SM BKN250
FM070600 14008KT P6SM OVC100
FM071300 14012KT P6SM -SHRA SCT025 OVC050



MET'MAP, your aeronautical weather chart ! - Copyright ORBIFLY December 2007 - Disclaimer

ORBIFLY MET'MAP TEAM :

Programming & Development : Alexandra Zaïnal
Concept & original design : Baudouin d'Aumeries
Assistance for programming : Marc-Olivier Méhu
Technical & hardware support : Manuel Goepfert

Contact : metmap@orbifly.com




SOURCES & CREDITS :

   NOAA       Earth
Advisory